createdAt,value
2022-10-19T00:07:12.361Z,7.90
2022-10-19T00:17:13.833Z,9.50
2022-10-19T00:27:15.269Z,9.73
2022-10-19T00:37:16.732Z,10.17
2022-10-19T00:47:23.356Z,10.63
2022-10-19T00:57:28.545Z,10.87
2022-10-19T01:07:30.741Z,9.67
2022-10-19T01:17:48.981Z,9.63
2022-10-19T01:27:59.773Z,9.57
2022-10-19T01:38:14.361Z,10.67
2022-10-19T01:48:21.049Z,10.07
2022-10-19T01:58:27.974Z,10.37
2022-10-19T02:08:35.001Z,9.13
2022-10-19T02:18:46.264Z,9.83
2022-10-19T02:28:48.641Z,9.80
2022-10-19T02:38:50.166Z,10.67
2022-10-19T02:48:52.045Z,10.83
2022-10-19T02:58:53.880Z,10.30
2022-10-19T03:08:58.489Z,9.70
2022-10-19T03:18:59.966Z,10.53
2022-10-19T03:29:01.823Z,11.83
2022-10-19T03:39:11.518Z,14.50
2022-10-19T03:49:13.088Z,16.83
2022-10-19T03:59:15.821Z,14.17
2022-10-19T04:09:19.509Z,13.43
2022-10-19T04:19:20.990Z,14.53
2022-10-19T04:29:26.485Z,15.90
2022-10-19T04:39:31.146Z,15.83
2022-10-19T04:49:32.566Z,22.67
2022-10-19T04:59:34.057Z,10.43
2022-10-19T05:09:35.617Z,10.00
2022-10-19T05:19:37.074Z,11.83
2022-10-19T05:29:38.498Z,10.37
2022-10-19T05:39:40.073Z,8.77
2022-10-19T05:49:41.531Z,10.03
2022-10-19T05:59:42.970Z,9.67
2022-10-19T06:09:45.685Z,9.17
2022-10-19T06:19:47.137Z,9.00
2022-10-19T06:29:48.789Z,9.17
2022-10-19T06:39:50.333Z,8.53
2022-10-19T06:49:51.780Z,7.67
2022-10-19T06:59:53.791Z,6.57
2022-10-19T07:09:55.302Z,5.07
2022-10-19T07:19:57.029Z,5.77
2022-10-19T07:29:58.466Z,5.33
2022-10-19T07:40:00.201Z,5.80
2022-10-19T07:50:01.643Z,6.33
2022-10-19T08:00:04.123Z,4.73
2022-10-19T08:10:13.661Z,4.40
2022-10-19T08:20:16.057Z,6.82
2022-10-19T08:30:17.766Z,2.65
2022-10-19T08:40:24.024Z,2.20
2022-10-19T08:50:34.221Z,2.78
2022-10-19T09:10:44.123Z,2.53
2022-10-19T09:20:49.178Z,2.10
2022-10-19T09:30:53.186Z,2.60
2022-10-19T09:40:58.206Z,2.30
2022-10-19T09:51:03.333Z,2.38
2022-10-19T10:01:04.933Z,2.20
2022-10-19T10:11:09.035Z,1.70
2022-10-19T10:21:25.298Z,2.15
2022-10-19T10:31:29.772Z,2.05
2022-10-19T10:41:38.477Z,1.98
2022-10-19T10:51:53.161Z,3.22
2022-10-19T11:02:14.378Z,3.95
2022-10-19T11:12:20.022Z,9.98
2022-10-19T11:22:43.377Z,19.10
2022-10-19T11:33:22.219Z,20.70
2022-10-19T11:43:32.058Z,19.20
2022-10-19T11:53:50.523Z,16.63
2022-10-19T12:04:01.839Z,13.57
2022-10-19T12:14:09.484Z,15.63
2022-10-19T12:24:22.658Z,13.57
2022-10-19T12:34:48.205Z,12.87
2022-10-19T12:45:11.960Z,11.97
2022-10-19T12:55:16.355Z,12.57
2022-10-19T13:05:23.383Z,13.20
2022-10-19T13:15:34.057Z,12.53
2022-10-19T13:25:36.937Z,12.40
2022-10-19T13:35:38.945Z,12.30
2022-10-19T13:45:42.614Z,13.00
2022-10-19T13:55:55.588Z,12.73
2022-10-19T14:06:07.862Z,13.43
2022-10-19T14:16:22.532Z,12.13
2022-10-19T14:26:27.925Z,11.77
2022-10-19T14:36:39.518Z,12.30
2022-10-19T14:46:40.958Z,12.33
2022-10-19T14:56:55.518Z,13.50
2022-10-19T15:06:58.983Z,13.43
2022-10-19T15:17:02.843Z,14.13
2022-10-19T15:27:22.435Z,12.83
2022-10-19T15:37:24.650Z,12.90
2022-10-19T15:47:26.887Z,11.67
2022-10-19T15:57:40.199Z,11.93
2022-10-19T16:07:42.018Z,10.07
2022-10-19T16:17:47.165Z,10.00
2022-10-19T16:27:48.692Z,9.77
2022-10-19T16:37:50.114Z,10.20
2022-10-19T16:47:52.858Z,11.03
2022-10-19T16:57:54.297Z,11.00
2022-10-19T17:07:55.984Z,9.07
2022-10-19T17:17:58.002Z,9.93
2022-10-19T17:27:59.453Z,11.47
2022-10-19T17:38:00.882Z,10.07
2022-10-19T17:48:02.309Z,9.03
2022-10-19T17:58:05.325Z,9.53
2022-10-19T18:08:06.845Z,9.57
2022-10-19T18:18:08.290Z,9.63
2022-10-19T18:28:09.837Z,10.70
2022-10-19T18:38:11.297Z,10.20
2022-10-19T18:48:12.712Z,9.73
2022-10-19T18:58:14.173Z,11.27
2022-10-19T19:08:15.828Z,10.27
2022-10-19T19:28:19.655Z,11.73
2022-10-19T19:38:21.157Z,9.27
2022-10-19T19:48:22.791Z,8.43
2022-10-19T19:58:24.281Z,8.73
2022-10-19T20:08:26.467Z,8.50
2022-10-19T20:18:29.579Z,9.20
2022-10-19T20:28:34.087Z,9.53
2022-10-19T20:38:37.182Z,9.80
2022-10-19T20:48:39.700Z,9.37
2022-10-19T20:58:43.362Z,10.13
2022-10-19T21:08:46.239Z,9.23
2022-10-19T21:18:49.314Z,10.57
2022-10-19T21:28:53.191Z,9.67
2022-10-19T21:38:54.676Z,9.83
2022-10-19T21:48:56.392Z,9.23
2022-10-19T21:58:57.952Z,10.30
2022-10-19T22:08:59.916Z,10.40
2022-10-19T22:19:01.420Z,10.53
2022-10-19T22:29:04.773Z,11.40
2022-10-19T22:39:07.051Z,10.30
2022-10-19T22:59:15.489Z,11.30
2022-10-19T23:09:16.896Z,11.77
2022-10-19T23:19:18.468Z,12.33
2022-10-19T23:29:20.033Z,12.30
2022-10-19T23:39:21.465Z,12.63
2022-10-19T23:49:22.890Z,12.93
2022-10-19T23:59:24.333Z,12.57
